createdAt,value
2022-11-17T00:00:19.359Z,29.63
2022-11-17T00:02:47.296Z,27.83
2022-11-17T00:05:14.469Z,28.15
2022-11-17T00:07:44.623Z,25.73
2022-11-17T00:10:12.836Z,24.20
2022-11-17T00:12:58.740Z,24.15
2022-11-17T00:15:26.259Z,22.15
2022-11-17T00:18:16.565Z,19.58
2022-11-17T00:21:02.322Z,20.17
2022-11-17T00:23:48.207Z,20.00
2022-11-17T00:26:27.492Z,18.00
2022-11-17T00:29:00.784Z,18.20
2022-11-17T00:31:52.828Z,14.23
2022-11-17T00:34:22.629Z,15.10
2022-11-17T00:36:52.499Z,14.52
2022-11-17T00:39:23.962Z,15.52
2022-11-17T00:41:51.045Z,15.85
2022-11-17T00:44:18.277Z,17.30
2022-11-17T00:46:45.349Z,18.10
2022-11-17T00:49:13.915Z,16.90
2022-11-17T00:51:41.751Z,15.87
2022-11-17T00:54:12.827Z,14.95
2022-11-17T00:56:40.201Z,16.45
2022-11-17T00:59:07.287Z,16.83
2022-11-17T01:01:34.718Z,15.55
2022-11-17T01:04:03.145Z,13.55
2022-11-17T01:06:41.473Z,14.88
2022-11-17T01:09:23.445Z,13.65
2022-11-17T01:11:52.586Z,15.93
2022-11-17T01:14:23.602Z,13.88
2022-11-17T01:16:52.029Z,14.05
2022-11-17T01:19:20.696Z,16.00
2022-11-17T01:21:48.211Z,13.60
2022-11-17T01:24:16.935Z,16.40
2022-11-17T01:26:45.282Z,13.85
2022-11-17T01:29:16.432Z,19.02
2022-11-17T01:31:44.434Z,18.88
2022-11-17T01:34:12.256Z,21.85
2022-11-17T01:37:01.202Z,25.02
2022-11-17T01:39:30.531Z,22.40
2022-11-17T01:42:03.323Z,24.13
2022-11-17T01:44:55.340Z,16.55
2022-11-17T01:47:43.605Z,13.30
2022-11-17T01:50:30.719Z,14.93
2022-11-17T01:53:01.904Z,18.88
2022-11-17T01:55:42.307Z,13.70
2022-11-17T01:58:14.755Z,17.50
2022-11-17T02:00:41.961Z,17.23
2022-11-17T02:03:09.417Z,20.70
2022-11-17T02:05:58.301Z,15.10
2022-11-17T02:08:29.844Z,16.90
2022-11-17T02:10:57.914Z,14.07
2022-11-17T02:13:25.849Z,15.80
2022-11-17T02:15:52.887Z,14.40
2022-11-17T02:18:20.167Z,17.02
2022-11-17T02:21:25.440Z,15.73
2022-11-17T02:24:32.855Z,11.50
2022-11-17T02:27:18.639Z,16.95
2022-11-17T02:30:24.049Z,14.43
2022-11-17T02:33:16.059Z,13.30
2022-11-17T02:36:19.487Z,14.07
2022-11-17T02:38:55.370Z,13.80
2022-11-17T02:42:16.905Z,19.10
2022-11-17T02:44:55.169Z,9.07
2022-11-17T02:47:32.057Z,10.05
2022-11-17T02:50:05.694Z,11.82
2022-11-17T02:52:33.402Z,10.38
2022-11-17T02:55:03.387Z,17.50
2022-11-17T02:57:33.295Z,8.93
2022-11-17T03:00:08.710Z,10.98
2022-11-17T03:03:02.884Z,9.98
2022-11-17T03:05:53.113Z,9.02
2022-11-17T03:08:41.975Z,14.27
2022-11-17T03:11:10.431Z,9.82
2022-11-17T03:13:40.223Z,9.40
2022-11-17T03:16:30.307Z,7.47
2022-11-17T03:19:26.047Z,10.13
2022-11-17T03:22:07.939Z,8.98
2022-11-17T03:24:51.598Z,11.02
2022-11-17T03:27:37.410Z,11.82
2022-11-17T03:30:09.022Z,10.65
2022-11-17T03:32:43.340Z,10.45
2022-11-17T03:35:19.850Z,6.65
2022-11-17T03:37:53.154Z,7.10
2022-11-17T03:40:28.498Z,6.97
2022-11-17T03:43:00.400Z,6.45
2022-11-17T03:45:39.989Z,5.30
2022-11-17T03:48:49.215Z,7.63
2022-11-17T03:51:22.769Z,7.45
2022-11-17T03:53:50.536Z,8.57
2022-11-17T03:56:57.053Z,8.18
2022-11-17T04:00:06.798Z,11.13
2022-11-17T04:02:42.487Z,9.30
2022-11-17T04:05:11.658Z,9.43
2022-11-17T04:07:45.241Z,7.40
2022-11-17T04:10:18.520Z,6.38
2022-11-17T04:13:06.467Z,6.20
2022-11-17T04:15:52.309Z,6.97
2022-11-17T04:18:20.992Z,4.63
2022-11-17T04:20:56.448Z,6.55
2022-11-17T04:23:25.190Z,6.80
2022-11-17T04:26:14.252Z,6.93
2022-11-17T04:28:46.782Z,6.10
2022-11-17T04:31:23.815Z,7.28
2022-11-17T04:33:57.062Z,6.50
2022-11-17T04:36:30.879Z,9.07
2022-11-17T04:38:59.670Z,9.80
2022-11-17T04:41:47.419Z,8.52
2022-11-17T04:44:16.959Z,8.43
2022-11-17T04:46:48.165Z,8.93
2022-11-17T04:49:17.867Z,7.30
2022-11-17T04:51:45.803Z,9.40
2022-11-17T04:54:17.403Z,6.57
2022-11-17T04:56:45.168Z,7.68
2022-11-17T04:59:12.358Z,6.25
2022-11-17T05:01:39.854Z,6.78
2022-11-17T05:04:10.018Z,7.65
2022-11-17T05:06:44.516Z,6.95
2022-11-17T05:09:15.304Z,7.28
2022-11-17T05:12:01.847Z,6.80
2022-11-17T05:14:30.014Z,7.22
2022-11-17T05:17:10.103Z,6.25
2022-11-17T05:19:46.495Z,7.60
2022-11-17T05:22:40.023Z,6.93
2022-11-17T05:25:07.860Z,6.95
2022-11-17T05:27:35.803Z,7.05
2022-11-17T05:30:06.374Z,7.95
2022-11-17T05:32:33.635Z,7.75
2022-11-17T05:35:00.712Z,7.28
2022-11-17T05:37:27.837Z,8.63
2022-11-17T05:39:54.989Z,6.47
2022-11-17T05:42:22.193Z,5.82
2022-11-17T05:44:49.494Z,7.07
2022-11-17T05:47:16.580Z,7.43
2022-11-17T05:49:43.861Z,6.13
2022-11-17T05:52:10.979Z,7.30
2022-11-17T05:54:38.036Z,7.13
2022-11-17T05:57:11.565Z,7.32
2022-11-17T05:59:51.008Z,7.35
2022-11-17T06:02:28.380Z,6.20
2022-11-17T06:04:55.560Z,7.15
2022-11-17T06:07:23.496Z,6.25
2022-11-17T06:09:51.591Z,6.95
2022-11-17T06:12:18.841Z,24.70
2022-11-17T06:14:45.948Z,18.75
2022-11-17T06:17:30.736Z,11.20
2022-11-17T06:20:22.108Z,13.98
2022-11-17T06:22:50.264Z,10.90
2022-11-17T06:25:19.203Z,14.82
2022-11-17T06:27:48.167Z,18.70
2022-11-17T06:30:15.331Z,16.25
2022-11-17T06:32:43.483Z,14.55
2022-11-17T06:35:13.914Z,11.30
2022-11-17T06:37:41.291Z,11.85
2022-11-17T06:40:12.760Z,13.95
2022-11-17T06:42:58.665Z,12.15
2022-11-17T06:45:26.147Z,13.35
2022-11-17T06:47:54.365Z,12.52
2022-11-17T06:50:21.556Z,10.82
2022-11-17T06:52:48.696Z,11.30
2022-11-17T06:55:16.116Z,11.18
2022-11-17T06:57:44.304Z,10.00
2022-11-17T07:00:14.570Z,10.95
2022-11-17T07:02:41.741Z,9.55
2022-11-17T07:05:09.510Z,12.25
2022-11-17T07:07:36.719Z,12.35
2022-11-17T07:10:04.144Z,11.68
2022-11-17T07:12:32.778Z,13.10
2022-11-17T07:15:00.032Z,14.50
2022-11-17T07:17:28.482Z,17.00
2022-11-17T07:19:56.215Z,15.53
2022-11-17T07:22:23.585Z,13.70
2022-11-17T07:24:51.007Z,14.48
2022-11-17T07:27:18.148Z,21.13
2022-11-17T07:29:45.352Z,18.73
2022-11-17T07:32:13.558Z,19.98
2022-11-17T07:34:41.986Z,19.92
2022-11-17T07:37:09.467Z,17.45
2022-11-17T07:39:36.609Z,19.63
2022-11-17T07:42:03.778Z,21.90
2022-11-17T07:44:31.017Z,20.75
2022-11-17T07:46:58.295Z,20.33
2022-11-17T07:49:27.486Z,20.30
2022-11-17T07:54:21.596Z,23.20
2022-11-17T07:56:48.840Z,20.20
2022-11-17T07:59:21.010Z,28.13
2022-11-17T08:01:48.679Z,23.13
2022-11-17T08:04:15.911Z,25.05
2022-11-17T08:06:43.103Z,20.88
2022-11-17T08:09:12.850Z,18.83
2022-11-17T08:11:39.978Z,19.95
2022-11-17T08:14:07.263Z,20.13
2022-11-17T08:16:34.458Z,19.58
2022-11-17T08:19:03.781Z,18.58
2022-11-17T08:23:59.597Z,21.88
2022-11-17T08:26:26.829Z,21.23
2022-11-17T08:28:58.469Z,23.45
2022-11-17T08:31:26.157Z,21.48
2022-11-17T08:33:53.681Z,23.65
2022-11-17T08:36:20.993Z,20.60
2022-11-17T08:38:48.126Z,23.05
2022-11-17T08:41:15.267Z,21.83
2022-11-17T08:43:42.554Z,26.45
2022-11-17T08:46:13.668Z,24.98
2022-11-17T08:48:40.927Z,23.52
2022-11-17T08:51:09.117Z,24.20
2022-11-17T08:53:36.490Z,30.92
2022-11-17T08:56:10.019Z,27.92
2022-11-17T08:58:44.471Z,27.52
2022-11-17T09:01:15.276Z,29.90
2022-11-17T09:03:44.942Z,29.50
2022-11-17T09:06:13.654Z,31.30
2022-11-17T09:08:56.102Z,30.42
2022-11-17T09:11:23.813Z,28.98
2022-11-17T09:13:51.014Z,30.80
2022-11-17T09:16:18.433Z,21.63
2022-11-17T09:18:45.627Z,18.95
2022-11-17T09:21:15.363Z,18.35
2022-11-17T09:23:42.811Z,20.95
2022-11-17T09:26:14.159Z,17.52
2022-11-17T09:28:43.455Z,17.15
2022-11-17T09:33:44.052Z,15.73
2022-11-17T09:36:13.744Z,14.82
2022-11-17T09:38:41.648Z,14.73
2022-11-17T09:41:31.944Z,15.20
2022-11-17T09:44:30.748Z,17.58
2022-11-17T09:47:33.294Z,15.63
2022-11-17T09:50:04.112Z,12.95
2022-11-17T09:52:49.067Z,11.25
2022-11-17T09:55:34.089Z,10.70
2022-11-17T09:58:26.320Z,11.80
2022-11-17T10:00:53.821Z,16.77
2022-11-17T10:03:42.033Z,19.67
2022-11-17T10:06:26.852Z,21.45
2022-11-17T10:09:14.517Z,26.15
2022-11-17T10:11:43.451Z,17.40
2022-11-17T10:14:21.370Z,19.33
2022-11-17T10:16:58.305Z,19.45
2022-11-17T10:19:30.851Z,24.13
2022-11-17T10:22:04.723Z,22.00
2022-11-17T10:24:46.983Z,24.20
2022-11-17T10:27:17.096Z,26.95
2022-11-17T10:30:06.411Z,35.13
2022-11-17T10:32:48.373Z,29.13
2022-11-17T10:35:24.127Z,25.88
2022-11-17T10:37:54.856Z,18.48
2022-11-17T10:40:31.477Z,12.73
2022-11-17T10:43:36.118Z,12.15
2022-11-17T10:46:13.100Z,12.40
2022-11-17T10:49:02.469Z,9.20
2022-11-17T10:51:32.179Z,8.95
2022-11-17T10:54:25.781Z,9.43
2022-11-17T10:56:59.811Z,8.40
2022-11-17T10:59:40.706Z,10.50
2022-11-17T11:02:37.650Z,8.60
2022-11-17T11:05:19.278Z,8.07
2022-11-17T11:07:46.423Z,7.53
2022-11-17T11:10:27.022Z,6.95
2022-11-17T11:13:05.760Z,7.22
2022-11-17T11:15:35.803Z,7.88
2022-11-17T11:18:16.526Z,7.18
2022-11-17T11:21:10.694Z,8.05
2022-11-17T11:24:04.705Z,5.32
2022-11-17T11:27:25.711Z,7.80
2022-11-17T11:30:10.498Z,5.90
2022-11-17T11:32:46.382Z,5.40
2022-11-17T11:35:59.569Z,5.50
2022-11-17T11:38:26.618Z,3.10
2022-11-17T11:42:07.644Z,3.47
2022-11-17T11:45:00.553Z,2.28
2022-11-17T11:47:43.492Z,3.65
2022-11-17T11:50:30.917Z,4.07
2022-11-17T11:53:18.184Z,5.53
2022-11-17T11:55:48.994Z,3.03
2022-11-17T11:58:25.412Z,5.22
2022-11-17T12:01:21.956Z,2.20
2022-11-17T12:04:21.038Z,2.47
2022-11-17T12:07:16.949Z,2.13
2022-11-17T12:10:04.714Z,1.40
2022-11-17T12:12:37.214Z,3.70
2022-11-17T12:15:19.689Z,2.17
2022-11-17T12:18:05.427Z,3.63
2022-11-17T12:20:38.584Z,3.05
2022-11-17T12:23:56.403Z,2.85
2022-11-17T12:26:30.530Z,3.38
2022-11-17T12:29:19.527Z,2.90
2022-11-17T12:31:50.652Z,3.40
2022-11-17T12:34:20.451Z,2.17
2022-11-17T12:37:19.278Z,2.20
2022-11-17T12:39:53.857Z,2.40
2022-11-17T12:42:21.241Z,2.05
2022-11-17T12:44:57.693Z,1.60
2022-11-17T12:47:36.646Z,2.05
2022-11-17T12:50:39.769Z,1.70
2022-11-17T12:53:49.494Z,2.22
2022-11-17T12:56:48.635Z,2.15
2022-11-17T12:59:36.775Z,1.90
2022-11-17T13:02:52.627Z,1.90
2022-11-17T13:05:23.806Z,2.35
2022-11-17T13:08:22.682Z,1.20
2022-11-17T13:10:50.683Z,1.80
2022-11-17T13:13:23.984Z,1.50
2022-11-17T13:16:00.140Z,1.58
2022-11-17T13:18:40.306Z,1.50
2022-11-17T13:21:29.094Z,1.20
2022-11-17T13:23:59.700Z,1.83
2022-11-17T13:26:37.313Z,1.65
2022-11-17T13:29:18.417Z,2.03
2022-11-17T13:31:46.101Z,1.73
2022-11-17T13:34:17.887Z,1.85
2022-11-17T13:37:00.171Z,4.38
2022-11-17T13:39:28.294Z,2.30
2022-11-17T13:42:01.840Z,1.90
2022-11-17T13:44:30.199Z,2.10
2022-11-17T13:47:20.457Z,1.70
2022-11-17T13:49:48.276Z,2.40
2022-11-17T13:52:40.423Z,2.25
2022-11-17T13:55:19.972Z,2.10
2022-11-17T13:58:27.353Z,2.00
2022-11-17T14:00:57.768Z,2.10
2022-11-17T14:03:40.568Z,2.15
2022-11-17T14:06:13.023Z,2.10
2022-11-17T14:08:42.573Z,1.13
2022-11-17T14:11:09.644Z,1.85
2022-11-17T14:14:11.291Z,1.70
2022-11-17T14:16:40.816Z,1.90
2022-11-17T14:19:17.445Z,2.70
2022-11-17T14:22:26.203Z,2.20
2022-11-17T14:24:58.048Z,2.60
2022-11-17T14:27:38.039Z,2.60
2022-11-17T14:30:06.197Z,2.25
2022-11-17T14:32:34.407Z,2.20
2022-11-17T14:35:01.573Z,3.70
2022-11-17T14:37:31.633Z,2.35
2022-11-17T14:40:00.149Z,2.40
2022-11-17T14:42:28.354Z,3.22
2022-11-17T14:44:57.480Z,3.22
2022-11-17T14:47:24.708Z,4.80
2022-11-17T14:49:51.976Z,3.03
2022-11-17T14:52:19.091Z,3.97
2022-11-17T14:54:46.195Z,4.15
2022-11-17T14:57:13.428Z,5.15
2022-11-17T14:59:40.666Z,4.45
2022-11-17T15:02:10.843Z,4.97
2022-11-17T15:04:50.454Z,5.20
2022-11-17T15:07:18.664Z,12.07
2022-11-17T15:09:45.936Z,8.57
2022-11-17T15:12:13.242Z,6.22
2022-11-17T15:14:40.436Z,5.90
2022-11-17T15:17:13.877Z,6.30
2022-11-17T15:19:41.893Z,6.15
2022-11-17T15:22:09.035Z,6.57
2022-11-17T15:24:36.202Z,5.68
2022-11-17T15:27:03.498Z,5.20
2022-11-17T15:29:30.604Z,5.97
2022-11-17T15:31:57.718Z,5.25
2022-11-17T15:34:24.857Z,6.68
2022-11-17T15:36:52.132Z,10.15
2022-11-17T15:39:20.234Z,8.38
2022-11-17T15:41:49.072Z,8.35
2022-11-17T15:44:18.171Z,7.10
2022-11-17T15:49:15.714Z,9.23
2022-11-17T15:51:43.460Z,11.23
2022-11-17T15:54:15.080Z,9.80
2022-11-17T15:56:47.566Z,11.27
2022-11-17T15:59:15.135Z,11.23
2022-11-17T16:01:43.278Z,11.32
2022-11-17T16:04:14.976Z,12.02
2022-11-17T16:06:44.491Z,9.65
2022-11-17T16:09:12.111Z,10.40
2022-11-17T16:11:40.537Z,8.15
2022-11-17T16:14:08.428Z,8.10
2022-11-17T16:16:38.529Z,8.13
2022-11-17T16:19:06.615Z,9.23
2022-11-17T16:21:33.848Z,14.30
2022-11-17T16:24:01.538Z,12.88
2022-11-17T16:26:29.548Z,11.68
2022-11-17T16:29:03.487Z,10.82
2022-11-17T16:31:38.055Z,9.48
2022-11-17T16:34:15.031Z,9.65
2022-11-17T16:36:43.863Z,9.05
2022-11-17T16:39:16.352Z,7.50
2022-11-17T16:41:45.089Z,6.50
2022-11-17T16:44:15.465Z,5.60
2022-11-17T16:46:45.593Z,5.88
2022-11-17T16:49:16.157Z,6.22
2022-11-17T16:51:49.849Z,11.00
2022-11-17T16:54:18.056Z,16.42
2022-11-17T16:56:45.703Z,12.63
2022-11-17T16:59:13.347Z,14.65
2022-11-17T17:01:40.650Z,12.98
2022-11-17T17:04:09.645Z,13.38
2022-11-17T17:06:43.419Z,13.18
2022-11-17T17:09:12.770Z,12.82
2022-11-17T17:14:11.589Z,11.45
2022-11-17T17:16:39.754Z,10.63
2022-11-17T17:19:09.532Z,12.57
2022-11-17T17:21:40.131Z,10.85
2022-11-17T17:24:08.694Z,12.57
2022-11-17T17:26:36.723Z,11.60
2022-11-17T17:29:05.346Z,9.75
2022-11-17T17:31:36.662Z,11.00
2022-11-17T17:34:05.867Z,12.13
2022-11-17T17:36:34.696Z,10.65
2022-11-17T17:39:02.915Z,11.73
2022-11-17T17:41:33.588Z,9.45
2022-11-17T17:44:06.538Z,9.85
2022-11-17T17:46:37.309Z,8.38
2022-11-17T17:49:05.526Z,7.65
2022-11-17T17:51:39.362Z,9.23
2022-11-17T17:54:09.626Z,7.40
2022-11-17T17:56:36.794Z,7.22
2022-11-17T17:59:03.969Z,7.20
2022-11-17T18:01:36.779Z,6.90
2022-11-17T18:04:04.510Z,6.57
2022-11-17T18:06:39.845Z,7.80
2022-11-17T18:09:13.851Z,7.85
2022-11-17T18:11:45.146Z,9.30
2022-11-17T18:14:12.754Z,8.60
2022-11-17T18:16:40.319Z,9.52
2022-11-17T18:19:09.156Z,9.43
2022-11-17T18:21:36.450Z,11.98
2022-11-17T18:24:04.207Z,10.80
2022-11-17T18:26:35.519Z,9.73
2022-11-17T18:29:06.842Z,12.07
2022-11-17T18:31:37.010Z,12.98
2022-11-17T18:34:14.912Z,16.33
2022-11-17T18:36:42.218Z,23.90
2022-11-17T18:39:09.472Z,28.08
2022-11-17T18:41:37.166Z,31.80
2022-11-17T18:44:04.638Z,31.63
2022-11-17T18:46:32.559Z,34.97
2022-11-17T18:49:00.336Z,34.60
2022-11-17T18:51:30.614Z,31.40
2022-11-17T18:53:59.634Z,24.48
2022-11-17T18:56:35.764Z,18.58
2022-11-17T18:59:10.792Z,18.08
2022-11-17T19:01:40.559Z,15.48
2022-11-17T19:04:08.331Z,14.88
2022-11-17T19:06:35.662Z,15.45
2022-11-17T19:09:03.402Z,13.50
2022-11-17T19:11:32.275Z,15.02
2022-11-17T19:14:06.373Z,13.30
2022-11-17T19:16:39.597Z,18.95
2022-11-17T19:19:12.306Z,17.45
2022-11-17T19:21:39.416Z,16.70
2022-11-17T19:24:07.320Z,22.42
2022-11-17T19:26:35.597Z,17.33
2022-11-17T19:29:15.664Z,16.73
2022-11-17T19:31:45.651Z,15.52
2022-11-17T19:34:14.105Z,11.70
2022-11-17T19:36:41.594Z,13.47
2022-11-17T19:39:10.893Z,14.18
2022-11-17T19:41:39.313Z,15.18
2022-11-17T19:44:08.475Z,15.77
2022-11-17T19:46:36.600Z,16.20
2022-11-17T19:49:05.475Z,19.95
2022-11-17T19:51:36.297Z,18.83
2022-11-17T19:54:08.922Z,24.98
2022-11-17T19:56:37.691Z,25.30
2022-11-17T19:59:05.108Z,24.40
2022-11-17T20:01:33.485Z,19.45
2022-11-17T20:04:01.311Z,20.58
2022-11-17T20:06:37.059Z,20.52
2022-11-17T20:09:10.738Z,24.75
2022-11-17T20:11:38.105Z,28.13
2022-11-17T20:14:05.565Z,26.42
2022-11-17T20:16:33.244Z,26.17
2022-11-17T20:19:01.880Z,25.05
2022-11-17T20:21:30.505Z,30.87
2022-11-17T20:23:58.688Z,29.00
2022-11-17T20:26:32.366Z,30.67
2022-11-17T20:29:00.487Z,32.67
2022-11-17T20:31:31.657Z,32.53
2022-11-17T20:34:00.206Z,28.65
2022-11-17T20:36:29.423Z,24.13
2022-11-17T20:39:02.698Z,19.38
2022-11-17T20:41:30.314Z,23.65
2022-11-17T20:44:00.049Z,23.17
2022-11-17T20:46:27.270Z,24.88
2022-11-17T20:48:54.576Z,26.73
2022-11-17T20:51:24.323Z,23.88
2022-11-17T20:53:51.810Z,21.65
2022-11-17T20:56:19.428Z,22.35
2022-11-17T20:58:46.936Z,22.30
2022-11-17T21:01:17.438Z,20.30
2022-11-17T21:03:45.573Z,20.45
2022-11-17T21:06:13.713Z,20.42
2022-11-17T21:08:42.857Z,21.30
2022-11-17T21:11:34.326Z,20.33
2022-11-17T21:14:03.236Z,22.60
2022-11-17T21:16:30.399Z,29.30
2022-11-17T21:18:57.677Z,29.90
2022-11-17T21:21:24.845Z,29.77
2022-11-17T21:23:53.832Z,30.95
2022-11-17T21:26:22.267Z,28.65
2022-11-17T21:28:49.991Z,20.83
2022-11-17T21:31:26.007Z,20.75
2022-11-17T21:33:54.823Z,22.30
2022-11-17T21:36:24.186Z,21.63
2022-11-17T21:38:52.053Z,20.30
2022-11-17T21:41:22.947Z,22.90
2022-11-17T21:43:52.188Z,20.85
2022-11-17T21:46:22.324Z,20.08
2022-11-17T21:48:50.991Z,19.80
2022-11-17T21:51:28.388Z,22.77
2022-11-17T21:53:57.875Z,20.25
2022-11-17T21:56:26.872Z,23.70
2022-11-17T21:59:09.010Z,19.35
2022-11-17T22:01:36.917Z,15.88
2022-11-17T22:04:04.378Z,17.67
2022-11-17T22:06:31.828Z,16.90
2022-11-17T22:09:00.040Z,19.70
2022-11-17T22:11:36.677Z,19.25
2022-11-17T22:14:15.867Z,18.05
2022-11-17T22:16:45.234Z,18.75
2022-11-17T22:19:15.206Z,21.23
2022-11-17T22:21:43.836Z,13.95
2022-11-17T22:24:12.233Z,13.45
2022-11-17T22:26:41.382Z,14.75
2022-11-17T22:29:21.609Z,16.25
2022-11-17T22:31:49.912Z,15.52
2022-11-17T22:34:18.253Z,13.30
2022-11-17T22:36:45.432Z,10.52
2022-11-17T22:39:12.834Z,13.85
2022-11-17T22:41:40.000Z,11.48
2022-11-17T22:44:07.156Z,10.13
2022-11-17T22:46:35.598Z,9.85
2022-11-17T22:49:02.748Z,9.52
2022-11-17T22:51:48.293Z,11.75
2022-11-17T22:54:15.475Z,11.85
2022-11-17T22:56:42.632Z,9.20
2022-11-17T22:59:09.850Z,9.93
2022-11-17T23:01:37.443Z,10.52
2022-11-17T23:04:05.530Z,11.05
2022-11-17T23:06:32.745Z,11.63
2022-11-17T23:09:00.138Z,11.45
2022-11-17T23:11:43.144Z,13.07
2022-11-17T23:14:13.534Z,12.45
2022-11-17T23:16:41.356Z,12.38
2022-11-17T23:19:12.983Z,14.65
2022-11-17T23:21:40.937Z,18.30
2022-11-17T23:24:13.840Z,18.52
2022-11-17T23:26:42.107Z,22.17
2022-11-17T23:29:09.529Z,19.35
2022-11-17T23:31:36.837Z,13.32
2022-11-17T23:34:04.054Z,10.88
2022-11-17T23:36:31.192Z,16.52
2022-11-17T23:38:58.355Z,17.48
2022-11-17T23:41:25.568Z,16.85
2022-11-17T23:43:53.935Z,17.92
2022-11-17T23:46:24.885Z,21.35
2022-11-17T23:48:53.330Z,20.02
2022-11-17T23:51:23.219Z,20.20
2022-11-17T23:53:50.365Z,20.75
2022-11-17T23:56:19.973Z,21.77
2022-11-17T23:58:47.865Z,21.90
